createdAt,value
2023-01-12T00:01:27.587Z,1.31
2023-01-12T00:04:14.053Z,1.28
2023-01-12T00:07:00.188Z,1.25
2023-01-12T00:09:45.470Z,0.96
2023-01-12T00:12:30.968Z,0.88
2023-01-12T00:15:16.293Z,0.74
2023-01-12T00:18:01.617Z,0.69
2023-01-12T00:20:50.309Z,0.51
2023-01-12T00:23:35.768Z,0.31
2023-01-12T00:26:21.198Z,0.22
2023-01-12T00:29:06.494Z,0.08
2023-01-12T00:31:53.474Z,0.06
2023-01-12T00:34:38.913Z,-0.05
2023-01-12T00:37:26.029Z,-0.15
2023-01-12T00:40:11.897Z,-0.26
2023-01-12T00:43:15.758Z,-0.19
2023-01-12T00:46:01.111Z,-0.28
2023-01-12T00:48:46.736Z,-0.29
2023-01-12T00:51:33.478Z,-0.38
2023-01-12T00:54:18.732Z,-0.39
2023-01-12T00:57:06.377Z,-0.55
2023-01-12T00:59:55.085Z,-0.57
2023-01-12T01:02:40.497Z,-0.57
2023-01-12T01:05:26.672Z,-0.57
2023-01-12T01:08:12.752Z,-0.66
2023-01-12T01:11:06.402Z,-0.48
2023-01-12T01:13:53.885Z,-0.34
2023-01-12T01:16:38.941Z,-0.31
2023-01-12T01:19:24.373Z,-0.40
2023-01-12T01:22:11.751Z,-0.45
2023-01-12T01:24:57.451Z,-0.59
2023-01-12T01:27:43.209Z,-0.56
2023-01-12T01:30:28.422Z,-0.37
2023-01-12T01:33:14.756Z,-0.54
2023-01-12T01:36:00.245Z,-0.56
2023-01-12T01:38:47.124Z,-0.63
2023-01-12T01:41:33.433Z,-0.55
2023-01-12T01:44:30.807Z,-0.69
2023-01-12T01:47:27.014Z,-0.73
2023-01-12T01:50:20.570Z,-0.68
2023-01-12T01:53:12.478Z,-0.65
2023-01-12T01:56:01.893Z,-0.74
2023-01-12T01:58:51.972Z,-0.82
2023-01-12T02:01:39.092Z,-0.73
2023-01-12T02:04:26.790Z,-0.74
2023-01-12T02:07:12.678Z,-0.76
2023-01-12T02:10:00.791Z,-0.65
2023-01-12T02:13:04.988Z,-0.51
2023-01-12T02:16:23.197Z,-0.47
2023-01-12T02:19:24.454Z,-0.44
2023-01-12T02:22:33.634Z,-0.21
2023-01-12T02:25:43.919Z,-0.02
2023-01-12T02:28:45.972Z,0.12
2023-01-12T02:31:47.742Z,0.18
2023-01-12T02:34:42.039Z,0.33
2023-01-12T02:37:45.895Z,0.43
2023-01-12T02:40:41.745Z,0.47
2023-01-12T02:43:30.745Z,0.51
2023-01-12T02:46:28.113Z,0.50
2023-01-12T02:49:18.183Z,0.49
2023-01-12T02:52:09.852Z,0.46
2023-01-12T02:54:55.332Z,0.58
2023-01-12T02:57:41.217Z,0.50
2023-01-12T03:00:27.086Z,0.49
2023-01-12T03:03:12.733Z,0.53
2023-01-12T03:05:59.835Z,0.56
2023-01-12T03:08:47.299Z,0.60
2023-01-12T03:11:32.972Z,0.69
2023-01-12T03:14:18.553Z,0.73
2023-01-12T03:17:07.604Z,0.80
2023-01-12T03:19:54.983Z,0.94
2023-01-12T03:22:42.180Z,1.12
2023-01-12T03:25:28.613Z,1.26
2023-01-12T03:28:15.032Z,1.27
2023-01-12T03:31:12.035Z,1.27
2023-01-12T03:33:59.093Z,1.16
2023-01-12T03:36:56.411Z,1.13
2023-01-12T03:40:01.247Z,1.29
2023-01-12T03:42:52.895Z,1.22
2023-01-12T03:45:39.604Z,1.24
2023-01-12T03:48:27.616Z,1.29
2023-01-12T03:51:42.576Z,1.44
2023-01-12T03:54:28.904Z,1.47
2023-01-12T03:57:14.403Z,1.54
2023-01-12T04:00:00.392Z,1.62
2023-01-12T04:02:45.661Z,1.64
2023-01-12T04:05:30.601Z,1.83
2023-01-12T04:08:16.527Z,1.62
2023-01-12T04:11:22.086Z,1.58
2023-01-12T04:14:07.511Z,1.74
2023-01-12T04:16:53.050Z,1.84
2023-01-12T04:19:38.472Z,1.79
2023-01-12T04:22:42.315Z,1.94
2023-01-12T04:25:27.708Z,1.86
2023-01-12T04:28:13.263Z,1.92
2023-01-12T04:30:58.320Z,1.92
2023-01-12T04:33:44.188Z,1.93
2023-01-12T04:36:29.554Z,1.95
2023-01-12T04:39:15.014Z,2.04
2023-01-12T04:42:00.486Z,2.05
2023-01-12T04:44:45.968Z,2.22
2023-01-12T04:47:31.516Z,2.22
2023-01-12T04:50:16.698Z,2.29
2023-01-12T04:53:03.843Z,2.26
2023-01-12T04:55:50.085Z,2.28
2023-01-12T04:58:35.764Z,2.32
2023-01-12T05:01:22.444Z,2.29
2023-01-12T05:04:08.904Z,2.25
2023-01-12T05:06:53.949Z,2.14
2023-01-12T05:09:59.070Z,2.05
2023-01-12T05:12:44.480Z,2.05
2023-01-12T05:15:29.511Z,2.07
2023-01-12T05:18:15.581Z,2.18
2023-01-12T05:21:00.826Z,2.25
2023-01-12T05:23:46.130Z,2.32
2023-01-12T05:26:31.457Z,2.34
2023-01-12T05:29:16.872Z,2.45
2023-01-12T05:32:02.326Z,2.42
2023-01-12T05:34:47.720Z,2.45
2023-01-12T05:37:33.666Z,2.34
2023-01-12T05:40:18.702Z,2.31
2023-01-12T05:43:22.561Z,2.32
2023-01-12T05:46:08.022Z,2.36
2023-01-12T05:48:55.495Z,2.38
2023-01-12T05:51:41.145Z,2.27
2023-01-12T05:54:27.462Z,2.28
2023-01-12T05:57:12.861Z,2.12
2023-01-12T05:59:59.542Z,2.27
2023-01-12T06:02:44.979Z,2.19
2023-01-12T06:05:30.354Z,2.15
2023-01-12T06:08:16.961Z,2.28
2023-01-12T06:11:03.459Z,2.24
2023-01-12T06:13:57.936Z,2.32
2023-01-12T06:16:44.114Z,2.28
2023-01-12T06:19:29.494Z,2.41
2023-01-12T06:22:15.286Z,2.54
2023-01-12T06:25:00.716Z,2.55
2023-01-12T06:27:46.060Z,2.55
2023-01-12T06:30:33.270Z,2.35
2023-01-12T06:33:18.585Z,2.57
2023-01-12T06:36:04.694Z,2.38
2023-01-12T06:38:50.126Z,2.57
2023-01-12T06:41:57.187Z,2.61
2023-01-12T06:44:42.825Z,2.70
2023-01-12T06:47:28.494Z,2.53
2023-01-12T06:50:14.529Z,2.55
2023-01-12T06:53:01.102Z,2.69
2023-01-12T06:55:50.892Z,2.75
2023-01-12T06:58:36.422Z,2.87
2023-01-12T07:01:23.076Z,2.89
2023-01-12T07:04:13.298Z,2.84
2023-01-12T07:07:01.038Z,2.84
2023-01-12T07:09:46.811Z,3.03
2023-01-12T07:12:39.716Z,3.07
2023-01-12T07:15:25.985Z,3.09
2023-01-12T07:18:12.376Z,3.09
2023-01-12T07:20:58.095Z,3.09
2023-01-12T07:23:44.270Z,3.02
2023-01-12T07:26:29.475Z,3.12
2023-01-12T07:29:16.243Z,3.25
2023-01-12T07:32:03.359Z,3.32
2023-01-12T07:34:51.841Z,3.38
2023-01-12T07:37:37.382Z,3.36
2023-01-12T07:40:22.688Z,3.37
2023-01-12T07:43:09.072Z,3.41
2023-01-12T07:46:00.658Z,3.44
2023-01-12T07:48:48.019Z,3.51
2023-01-12T07:51:35.272Z,3.65
2023-01-12T07:54:23.625Z,3.69
2023-01-12T07:57:10.918Z,3.71
2023-01-12T07:59:55.932Z,3.82
2023-01-12T08:02:41.979Z,3.92
2023-01-12T08:05:27.554Z,4.03
2023-01-12T08:08:13.599Z,3.87
2023-01-12T08:11:03.746Z,3.92
2023-01-12T08:13:49.312Z,3.81
2023-01-12T08:16:40.878Z,3.91
2023-01-12T08:19:31.286Z,3.87
2023-01-12T08:22:22.354Z,3.69
2023-01-12T08:25:11.366Z,3.94
2023-01-12T08:28:00.736Z,3.90
2023-01-12T08:30:49.265Z,3.94
2023-01-12T08:33:34.926Z,4.12
2023-01-12T08:36:21.898Z,4.14
2023-01-12T08:39:07.415Z,4.19
2023-01-12T08:41:52.797Z,4.22
2023-01-12T08:44:40.739Z,4.36
2023-01-12T08:47:28.322Z,4.31
2023-01-12T08:50:14.616Z,4.17
2023-01-12T08:53:00.203Z,4.14
2023-01-12T08:55:55.833Z,4.19
2023-01-12T08:58:43.921Z,4.05
2023-01-12T09:01:29.595Z,4.20
2023-01-12T09:04:14.947Z,4.18
2023-01-12T09:07:00.589Z,4.32
2023-01-12T09:09:49.173Z,4.23
2023-01-12T09:12:35.871Z,4.40
2023-01-12T09:15:22.370Z,4.48
2023-01-12T09:18:08.695Z,4.59
2023-01-12T09:21:01.727Z,4.79
2023-01-12T09:23:49.357Z,4.83
2023-01-12T09:26:43.522Z,4.98
2023-01-12T09:29:31.559Z,5.22
2023-01-12T09:32:26.044Z,5.54
2023-01-12T09:35:15.081Z,5.78
2023-01-12T09:38:00.189Z,6.39
2023-01-12T09:40:46.061Z,6.61
2023-01-12T09:43:50.401Z,6.93
2023-01-12T09:46:56.512Z,7.20
2023-01-12T09:49:47.301Z,7.85
2023-01-12T09:52:57.386Z,8.13
2023-01-12T09:56:03.073Z,8.20
2023-01-12T09:59:44.230Z,8.22
2023-01-12T10:02:35.574Z,8.29
2023-01-12T10:05:44.692Z,8.49
2023-01-12T10:08:36.438Z,8.70
2023-01-12T10:11:39.135Z,8.95
2023-01-12T10:14:33.385Z,8.85
2023-01-12T10:17:51.385Z,8.74
2023-01-12T10:20:42.635Z,8.94
2023-01-12T10:23:28.423Z,9.45
2023-01-12T10:26:23.203Z,11.05
2023-01-12T10:29:10.709Z,11.48
2023-01-12T10:31:55.916Z,11.49
2023-01-12T10:34:54.234Z,12.14
2023-01-12T10:37:56.882Z,12.58
2023-01-12T10:40:44.608Z,12.02
2023-01-12T10:43:34.575Z,11.62
2023-01-12T10:46:24.385Z,11.36
2023-01-12T10:49:21.509Z,11.74
2023-01-12T10:52:11.299Z,11.48
2023-01-12T10:54:58.938Z,11.75
2023-01-12T10:57:46.244Z,12.20
2023-01-12T11:00:32.120Z,11.86
2023-01-12T11:03:33.995Z,11.79
2023-01-12T11:06:30.906Z,12.24
2023-01-12T11:09:28.988Z,12.48
2023-01-12T11:12:23.764Z,12.76
2023-01-12T11:15:12.266Z,12.22
2023-01-12T11:17:57.479Z,11.90
2023-01-12T11:20:48.020Z,10.97
2023-01-12T11:23:48.395Z,10.60
2023-01-12T11:26:37.086Z,10.28
2023-01-12T11:29:45.410Z,9.75
2023-01-12T11:32:37.070Z,9.48
2023-01-12T11:35:50.136Z,9.01
2023-01-12T11:38:44.567Z,8.90
2023-01-12T11:42:10.477Z,8.71
2023-01-12T11:45:28.445Z,8.95
2023-01-12T11:48:21.654Z,9.10
2023-01-12T11:51:08.672Z,8.97
2023-01-12T11:53:54.437Z,8.83
2023-01-12T11:56:58.873Z,8.84
2023-01-12T11:59:56.397Z,8.49
2023-01-12T12:02:46.379Z,8.28
2023-01-12T12:05:47.523Z,8.18
2023-01-12T12:09:04.347Z,8.05
2023-01-12T12:12:27.645Z,8.28
2023-01-12T12:15:22.964Z,8.31
2023-01-12T12:18:26.701Z,8.25
2023-01-12T12:21:30.480Z,8.66
2023-01-12T12:24:21.789Z,8.91
2023-01-12T12:27:21.435Z,8.82
2023-01-12T12:30:22.270Z,8.88
2023-01-12T12:33:45.363Z,8.92
2023-01-12T12:36:51.539Z,8.97
2023-01-12T12:39:42.758Z,9.15
2023-01-12T12:43:03.367Z,9.09
2023-01-12T12:45:56.895Z,9.29
2023-01-12T12:49:05.365Z,9.59
2023-01-12T12:51:53.068Z,9.79
2023-01-12T12:54:39.988Z,9.92
2023-01-12T12:57:25.367Z,10.45
2023-01-12T13:00:30.369Z,10.56
2023-01-12T13:03:40.443Z,13.22
2023-01-12T13:06:38.541Z,14.41
2023-01-12T13:09:25.279Z,14.98
2023-01-12T13:12:33.916Z,15.52
2023-01-12T13:15:21.946Z,16.10
2023-01-12T13:18:45.986Z,16.86
2023-01-12T13:21:57.221Z,17.02
2023-01-12T13:24:44.658Z,17.45
2023-01-12T13:27:49.019Z,17.89
2023-01-12T13:30:35.024Z,16.85
2023-01-12T13:33:28.481Z,17.77
2023-01-12T13:36:30.496Z,18.20
2023-01-12T13:39:16.343Z,18.54
2023-01-12T13:42:20.526Z,19.33
2023-01-12T13:45:11.539Z,19.85
2023-01-12T13:47:57.100Z,17.41
2023-01-12T13:50:48.050Z,18.93
2023-01-12T13:53:33.614Z,19.83
2023-01-12T13:56:24.468Z,20.11
2023-01-12T13:59:18.253Z,19.75
2023-01-12T14:02:04.079Z,20.13
2023-01-12T14:04:57.521Z,19.51
2023-01-12T14:08:24.376Z,18.79
2023-01-12T14:11:20.811Z,18.53
2023-01-12T14:14:58.912Z,18.04
2023-01-12T14:17:53.594Z,17.63
2023-01-12T14:20:58.574Z,15.90
2023-01-12T14:23:44.145Z,15.34
2023-01-12T14:26:30.537Z,13.92
2023-01-12T14:29:15.831Z,13.00
2023-01-12T14:32:01.340Z,11.47
2023-01-12T14:34:52.395Z,10.08
2023-01-12T14:37:37.375Z,9.43
2023-01-12T14:40:27.986Z,8.74
2023-01-12T14:43:33.214Z,8.37
2023-01-12T14:46:25.318Z,8.02
2023-01-12T14:49:22.752Z,7.63
2023-01-12T14:52:16.924Z,7.37
2023-01-12T14:55:18.708Z,7.13
2023-01-12T14:58:05.180Z,7.08
2023-01-12T15:00:50.753Z,6.93
2023-01-12T15:03:43.712Z,6.77
2023-01-12T15:06:29.355Z,6.70
2023-01-12T15:09:27.643Z,6.70
2023-01-12T15:12:25.607Z,6.59
2023-01-12T15:15:15.079Z,6.48
2023-01-12T15:18:18.779Z,6.29
2023-01-12T15:21:22.875Z,6.25
2023-01-12T15:24:53.566Z,6.18
2023-01-12T15:27:40.179Z,6.11
2023-01-12T15:30:25.161Z,5.98
2023-01-12T15:33:10.600Z,5.83
2023-01-12T15:35:58.641Z,5.77
2023-01-12T15:38:44.536Z,5.71
2023-01-12T15:41:49.714Z,5.68
2023-01-12T15:44:34.832Z,5.50
2023-01-12T15:47:21.193Z,5.38
2023-01-12T15:50:07.197Z,5.35
2023-01-12T15:52:52.781Z,5.27
2023-01-12T15:55:39.530Z,5.25
2023-01-12T15:58:24.886Z,5.22
2023-01-12T16:01:16.357Z,5.04
2023-01-12T16:04:39.807Z,4.99
2023-01-12T16:07:06.943Z,4.86
2023-01-12T16:09:52.384Z,4.86
2023-01-12T16:12:37.904Z,4.84
2023-01-12T16:15:24.628Z,4.72
2023-01-12T16:18:10.221Z,4.69
2023-01-12T16:20:59.359Z,4.70
2023-01-12T16:23:45.910Z,4.70
2023-01-12T16:26:31.441Z,4.62
2023-01-12T16:29:17.565Z,4.50
2023-01-12T16:32:03.383Z,4.47
2023-01-12T16:34:48.631Z,4.18
2023-01-12T16:37:35.352Z,4.21
2023-01-12T16:40:20.843Z,4.13
2023-01-12T16:43:06.235Z,4.07
2023-01-12T16:45:52.073Z,4.02
2023-01-12T16:48:39.404Z,3.84
2023-01-12T16:51:25.763Z,3.82
2023-01-12T16:54:10.698Z,3.69
2023-01-12T16:56:56.177Z,3.68
2023-01-12T16:59:41.921Z,3.51
2023-01-12T17:02:28.884Z,3.40
2023-01-12T17:05:15.206Z,3.35
2023-01-12T17:08:00.431Z,3.37
2023-01-12T17:10:45.765Z,3.47
2023-01-12T17:13:31.163Z,3.43
2023-01-12T17:16:16.564Z,3.21
2023-01-12T17:19:02.316Z,3.18
2023-01-12T17:21:48.071Z,3.06
2023-01-12T17:24:36.098Z,3.08
2023-01-12T17:27:21.868Z,3.01
2023-01-12T17:30:07.825Z,2.96
2023-01-12T17:32:53.217Z,2.95
2023-01-12T17:35:38.471Z,2.82
2023-01-12T17:38:23.787Z,2.81
2023-01-12T17:41:34.171Z,2.73
2023-01-12T17:44:20.388Z,2.77
2023-01-12T17:47:05.786Z,2.67
2023-01-12T17:49:51.352Z,2.50
2023-01-12T17:52:36.330Z,2.32
2023-01-12T17:55:22.195Z,2.31
2023-01-12T17:58:07.745Z,2.30
2023-01-12T18:00:52.889Z,2.31
2023-01-12T18:03:38.364Z,2.09
2023-01-12T18:06:27.386Z,1.91
2023-01-12T18:09:12.711Z,1.76
2023-01-12T18:11:58.159Z,1.62
2023-01-12T18:14:43.656Z,1.54
2023-01-12T18:17:30.098Z,1.55
2023-01-12T18:20:15.387Z,1.51
2023-01-12T18:23:00.699Z,1.47
2023-01-12T18:25:46.142Z,1.51
2023-01-12T18:28:31.441Z,1.32
2023-01-12T18:31:19.455Z,1.43
2023-01-12T18:34:07.734Z,1.41
2023-01-12T18:36:53.106Z,1.37
2023-01-12T18:39:41.351Z,1.26
2023-01-12T18:42:45.086Z,1.35
2023-01-12T18:45:30.530Z,1.38
2023-01-12T18:48:23.723Z,1.43
2023-01-12T18:51:27.582Z,1.31
2023-01-12T18:54:12.791Z,1.28
2023-01-12T18:56:59.315Z,1.31
2023-01-12T18:59:50.390Z,1.25
2023-01-12T19:02:35.469Z,1.28
2023-01-12T19:05:25.462Z,1.33
2023-01-12T19:08:29.712Z,1.25
2023-01-12T19:11:15.755Z,1.09
2023-01-12T19:14:19.580Z,1.28
2023-01-12T19:17:23.464Z,1.19
2023-01-12T19:20:14.423Z,1.21
2023-01-12T19:23:18.416Z,1.03
2023-01-12T19:26:22.315Z,1.01
2023-01-12T19:29:07.688Z,0.86
2023-01-12T19:31:53.124Z,0.79
2023-01-12T19:34:38.354Z,0.73
2023-01-12T19:37:23.727Z,0.69
2023-01-12T19:40:25.726Z,0.89
2023-01-12T19:43:19.362Z,0.94
2023-01-12T19:46:04.741Z,0.59
2023-01-12T19:48:50.123Z,0.26
2023-01-12T19:51:35.609Z,0.29
2023-01-12T19:54:21.139Z,0.13
2023-01-12T19:57:06.458Z,0.27
2023-01-12T19:59:51.727Z,0.26
2023-01-12T20:02:36.907Z,0.19
2023-01-12T20:05:22.844Z,0.12
2023-01-12T20:08:08.868Z,0.35
2023-01-12T20:10:58.997Z,0.43
2023-01-12T20:13:44.452Z,0.39
2023-01-12T20:16:30.107Z,0.42
2023-01-12T20:19:15.473Z,0.37
2023-01-12T20:22:01.596Z,0.32
2023-01-12T20:24:47.634Z,0.25
2023-01-12T20:27:34.192Z,0.02
2023-01-12T20:30:36.580Z,-0.06
2023-01-12T20:33:24.507Z,-0.03
2023-01-12T20:36:11.767Z,-0.27
2023-01-12T20:38:58.497Z,-0.31
2023-01-12T20:41:43.775Z,-0.39
2023-01-12T20:44:29.293Z,-0.36
2023-01-12T20:47:19.074Z,-0.32
2023-01-12T20:50:07.655Z,-0.31
2023-01-12T20:52:56.981Z,-0.34
2023-01-12T20:55:44.346Z,-0.44
2023-01-12T20:58:29.983Z,-0.41
2023-01-12T21:01:15.841Z,-0.51
2023-01-12T21:04:01.326Z,-0.50
2023-01-12T21:06:46.742Z,-0.28
2023-01-12T21:09:32.069Z,-0.25
2023-01-12T21:12:17.559Z,-0.29
2023-01-12T21:15:03.623Z,-0.43
2023-01-12T21:17:49.522Z,-0.45
2023-01-12T21:20:34.703Z,-0.48
2023-01-12T21:23:20.533Z,-0.43
2023-01-12T21:26:08.844Z,-0.49
2023-01-12T21:28:53.947Z,-0.51
2023-01-12T21:31:39.235Z,-0.49
2023-01-12T21:34:24.408Z,-0.46
2023-01-12T21:37:10.089Z,-0.58
2023-01-12T21:39:55.496Z,-0.64
2023-01-12T21:42:59.536Z,-0.53
2023-01-12T21:45:48.817Z,-0.55
2023-01-12T21:48:35.389Z,-0.65
2023-01-12T21:51:23.773Z,-0.65
2023-01-12T21:54:09.449Z,-0.65
2023-01-12T21:56:54.599Z,-0.60
2023-01-12T21:59:39.716Z,-0.48
2023-01-12T22:02:25.589Z,-0.47
2023-01-12T22:05:11.312Z,-0.45
2023-01-12T22:07:57.868Z,-0.31
2023-01-12T22:10:43.414Z,-0.38
2023-01-12T22:13:28.769Z,-0.52
2023-01-12T22:16:15.787Z,-0.65
2023-01-12T22:19:00.987Z,-0.67
2023-01-12T22:21:46.408Z,-0.73
2023-01-12T22:24:31.805Z,-0.70
2023-01-12T22:27:17.837Z,-0.71
2023-01-12T22:30:04.838Z,-0.63
2023-01-12T22:32:55.412Z,-0.76
2023-01-12T22:35:40.800Z,-0.58
2023-01-12T22:38:25.972Z,-0.71
2023-01-12T22:41:12.159Z,-0.47
2023-01-12T22:43:57.150Z,-0.48
2023-01-12T22:46:44.650Z,-0.47
2023-01-12T22:49:30.063Z,-0.59
2023-01-12T22:52:15.280Z,-0.60
2023-01-12T22:55:00.807Z,-0.62
2023-01-12T22:57:47.426Z,-0.51
2023-01-12T23:00:32.705Z,-0.45
2023-01-12T23:03:18.697Z,-0.52
2023-01-12T23:06:12.084Z,-0.61
2023-01-12T23:08:57.394Z,-0.66
2023-01-12T23:11:42.751Z,-0.61
2023-01-12T23:14:28.026Z,-0.47
2023-01-12T23:17:12.967Z,-0.36
2023-01-12T23:19:58.472Z,-0.64
2023-01-12T23:22:43.603Z,-0.68
2023-01-12T23:25:29.149Z,-0.86
2023-01-12T23:28:14.992Z,-0.85
2023-01-12T23:31:09.840Z,-1.02
2023-01-12T23:33:57.015Z,-1.00
2023-01-12T23:36:44.331Z,-0.90
2023-01-12T23:39:29.897Z,-0.93
2023-01-12T23:42:15.236Z,-0.95
2023-01-12T23:45:01.064Z,-0.92
2023-01-12T23:47:47.413Z,-1.02
2023-01-12T23:50:44.407Z,-1.08
2023-01-12T23:53:30.170Z,-1.14
2023-01-12T23:56:16.785Z,-1.16
2023-01-12T23:59:02.209Z,-1.11
